createdAt,value
2023-05-21T00:00:43.820Z,1.70
2023-05-21T00:03:31.284Z,2.10
2023-05-21T00:06:26.899Z,2.25
2023-05-21T00:09:14.194Z,1.92
2023-05-21T00:12:07.925Z,2.13
2023-05-21T00:14:55.102Z,1.90
2023-05-21T00:17:49.916Z,2.20
2023-05-21T00:20:44.001Z,2.08
2023-05-21T00:23:32.892Z,1.90
2023-05-21T00:26:27.896Z,2.17
2023-05-21T00:29:15.119Z,2.17
2023-05-21T00:32:09.018Z,2.00
2023-05-21T00:35:02.924Z,2.03
2023-05-21T00:37:57.022Z,1.80
2023-05-21T00:40:50.879Z,2.10
2023-05-21T00:43:40.358Z,1.70
2023-05-21T00:46:34.930Z,2.70
2023-05-21T00:49:24.533Z,2.20
2023-05-21T00:52:18.900Z,2.13
2023-05-21T00:55:06.475Z,2.40
2023-05-21T00:57:59.915Z,2.72
2023-05-21T01:00:47.176Z,2.35
2023-05-21T01:03:44.939Z,2.28
2023-05-21T01:06:34.867Z,2.38
2023-05-21T01:09:28.953Z,2.33
2023-05-21T01:12:18.846Z,2.13
2023-05-21T01:15:13.935Z,2.50
2023-05-21T01:18:07.964Z,2.33
2023-05-21T01:21:04.952Z,2.28
2023-05-21T01:23:52.498Z,2.08
2023-05-21T01:26:45.964Z,2.45
2023-05-21T01:29:33.555Z,2.10
2023-05-21T01:33:06.137Z,2.92
2023-05-21T01:35:56.549Z,2.42
2023-05-21T01:39:13.982Z,2.42
2023-05-21T01:42:11.073Z,2.30
2023-05-21T01:45:01.353Z,2.60
2023-05-21T01:47:57.132Z,2.33
2023-05-21T01:50:54.030Z,2.53
2023-05-21T01:53:48.012Z,2.88
2023-05-21T01:56:37.156Z,2.58
2023-05-21T01:59:31.291Z,2.97
2023-05-21T02:02:18.512Z,2.72
2023-05-21T02:05:13.029Z,2.42
2023-05-21T02:08:01.005Z,3.40
2023-05-21T02:10:57.590Z,2.85
2023-05-21T02:13:46.067Z,2.88
2023-05-21T02:16:40.171Z,2.72
2023-05-21T02:19:27.839Z,2.50
2023-05-21T02:22:22.048Z,2.67
2023-05-21T02:25:10.627Z,3.10
2023-05-21T02:28:04.072Z,2.30
2023-05-21T02:30:51.217Z,3.30
2023-05-21T02:33:47.103Z,3.20
2023-05-21T02:36:36.112Z,2.63
2023-05-21T02:39:30.125Z,2.80
2023-05-21T02:42:17.254Z,2.65
2023-05-21T02:45:11.123Z,2.92
2023-05-21T02:48:05.206Z,3.10
2023-05-21T02:50:58.097Z,2.53
2023-05-21T02:53:52.543Z,2.70
2023-05-21T02:56:39.673Z,3.17
2023-05-21T02:59:33.133Z,3.25
2023-05-21T03:02:20.309Z,3.25
2023-05-21T03:05:14.098Z,3.35
2023-05-21T03:08:01.373Z,3.38
2023-05-21T03:10:56.134Z,3.80
2023-05-21T03:13:43.297Z,3.13
2023-05-21T03:16:41.154Z,3.60
2023-05-21T03:19:30.470Z,3.70
2023-05-21T03:22:24.170Z,3.90
2023-05-21T03:25:12.290Z,3.42
2023-05-21T03:28:06.185Z,3.15
2023-05-21T03:30:53.625Z,3.10
2023-05-21T03:33:47.148Z,3.70
2023-05-21T03:36:34.390Z,3.78
2023-05-21T03:39:28.188Z,3.65
2023-05-21T03:42:22.182Z,4.00
2023-05-21T03:45:10.311Z,3.70
2023-05-21T03:48:04.436Z,3.70
2023-05-21T03:50:58.234Z,3.60
2023-05-21T03:53:45.448Z,3.78
2023-05-21T03:56:39.178Z,3.45
2023-05-21T03:59:26.401Z,3.95
2023-05-21T04:02:20.228Z,2.88
2023-05-21T04:05:14.250Z,4.25
2023-05-21T04:08:01.321Z,3.35
2023-05-21T04:10:55.332Z,3.30
2023-05-21T04:13:42.602Z,3.50
2023-05-21T04:16:36.289Z,3.08
2023-05-21T04:19:23.450Z,3.35
2023-05-21T04:22:18.251Z,4.00
2023-05-21T04:25:05.768Z,4.07
2023-05-21T04:28:01.488Z,3.80
2023-05-21T04:30:49.904Z,4.13
2023-05-21T04:33:43.273Z,3.22
2023-05-21T04:36:30.520Z,3.53
2023-05-21T04:39:24.258Z,3.55
2023-05-21T04:42:11.361Z,3.00
2023-05-21T04:45:06.275Z,3.00
2023-05-21T04:47:53.337Z,3.08
2023-05-21T04:50:48.294Z,3.10
2023-05-21T04:53:42.311Z,2.78
2023-05-21T04:56:36.287Z,3.35
2023-05-21T04:59:23.596Z,3.15
2023-05-21T05:02:17.283Z,3.53
2023-05-21T05:05:04.776Z,3.38
2023-05-21T05:07:58.286Z,2.60
2023-05-21T05:10:45.433Z,3.65
2023-05-21T05:13:40.736Z,4.13
2023-05-21T05:16:29.818Z,3.45
2023-05-21T05:19:23.369Z,3.63
2023-05-21T05:22:12.397Z,2.78
2023-05-21T05:25:07.352Z,2.88
2023-05-21T05:28:01.333Z,2.90
2023-05-21T05:30:48.557Z,2.97
2023-05-21T05:33:42.356Z,3.90
2023-05-21T05:36:36.398Z,3.38
2023-05-21T05:39:30.405Z,3.10
2023-05-21T05:42:24.362Z,3.10
2023-05-21T05:45:12.026Z,2.88
2023-05-21T05:48:05.417Z,3.53
2023-05-21T05:50:54.770Z,4.20
2023-05-21T05:53:48.366Z,3.95
2023-05-21T05:56:35.459Z,3.78
2023-05-21T05:59:29.455Z,3.63
2023-05-21T06:02:16.665Z,3.28
2023-05-21T06:05:11.409Z,3.00
2023-05-21T06:08:05.637Z,2.90
2023-05-21T06:10:52.778Z,2.80
2023-05-21T06:13:46.397Z,3.90
2023-05-21T06:16:40.603Z,3.75
2023-05-21T06:19:27.884Z,3.72
2023-05-21T06:22:23.033Z,3.70
2023-05-21T06:25:11.352Z,4.22
2023-05-21T06:28:05.491Z,4.30
2023-05-21T06:30:59.590Z,4.00
2023-05-21T06:33:46.805Z,3.83
2023-05-21T06:36:41.443Z,4.82
2023-05-21T06:39:28.553Z,4.03
2023-05-21T06:42:22.469Z,3.10
2023-05-21T06:45:16.471Z,4.28
2023-05-21T06:48:10.532Z,3.90
2023-05-21T06:51:04.436Z,4.05
2023-05-21T06:53:58.462Z,3.95
2023-05-21T06:56:52.474Z,4.45
2023-05-21T06:59:39.664Z,5.00
2023-05-21T07:02:33.552Z,4.50
2023-05-21T07:05:20.830Z,4.93
2023-05-21T07:08:15.508Z,4.60
2023-05-21T07:11:02.674Z,3.70
2023-05-21T07:13:56.596Z,4.88
2023-05-21T07:16:43.778Z,4.97
2023-05-21T07:19:37.515Z,4.85
2023-05-21T07:22:31.514Z,4.53
2023-05-21T07:25:18.636Z,3.58
2023-05-21T07:28:12.575Z,4.97
2023-05-21T07:31:06.512Z,4.97
2023-05-21T07:33:53.689Z,4.93
2023-05-21T07:36:47.564Z,4.32
2023-05-21T07:39:41.617Z,4.93
2023-05-21T07:42:35.554Z,4.78
2023-05-21T07:45:22.915Z,4.15
2023-05-21T07:48:16.556Z,5.75
2023-05-21T07:51:04.007Z,5.10
2023-05-21T07:53:57.692Z,5.65
2023-05-21T07:56:51.597Z,5.18
2023-05-21T07:59:38.768Z,4.90
2023-05-21T08:02:32.651Z,6.18
2023-05-21T08:05:21.229Z,5.32
2023-05-21T08:08:14.619Z,5.00
2023-05-21T08:11:02.463Z,4.60
2023-05-21T08:13:56.591Z,4.93
2023-05-21T08:16:51.675Z,5.28
2023-05-21T08:19:39.180Z,5.57
2023-05-21T08:22:32.642Z,5.72
2023-05-21T08:25:26.642Z,5.00
2023-05-21T08:28:20.595Z,6.20
2023-05-21T08:31:14.642Z,5.40
2023-05-21T08:34:08.660Z,4.97
2023-05-21T08:37:02.644Z,5.30
2023-05-21T08:39:56.666Z,5.45
2023-05-21T08:42:45.899Z,4.80
2023-05-21T08:45:44.691Z,5.00
2023-05-21T08:48:38.662Z,4.80
2023-05-21T08:51:33.657Z,5.88
2023-05-21T08:54:28.671Z,5.13
2023-05-21T08:57:17.366Z,5.10
2023-05-21T09:00:14.728Z,5.47
2023-05-21T09:03:13.806Z,5.22
2023-05-21T09:06:07.718Z,5.50
2023-05-21T09:09:06.731Z,5.63
2023-05-21T09:12:00.785Z,4.60
2023-05-21T09:14:54.810Z,5.10
2023-05-21T09:17:48.753Z,5.07
2023-05-21T09:20:36.282Z,6.75
2023-05-21T09:23:29.678Z,6.43
2023-05-21T09:26:23.722Z,5.72
2023-05-21T09:29:13.233Z,5.65
2023-05-21T09:32:13.719Z,5.18
2023-05-21T09:35:34.263Z,5.88
2023-05-21T09:38:27.027Z,6.00
2023-05-21T09:41:22.248Z,6.05
2023-05-21T09:44:10.862Z,5.05
2023-05-21T09:47:07.776Z,5.40
2023-05-21T09:49:58.717Z,5.15
2023-05-21T09:52:52.806Z,5.50
2023-05-21T09:55:47.765Z,5.63
2023-05-21T09:58:35.114Z,5.97
2023-05-21T10:01:29.834Z,5.80
2023-05-21T10:04:17.864Z,5.72
2023-05-21T10:07:11.784Z,4.93
2023-05-21T10:10:01.194Z,5.47
2023-05-21T10:12:59.800Z,4.65
2023-05-21T10:15:53.086Z,5.25
2023-05-21T10:18:48.845Z,5.05
2023-05-21T10:21:36.979Z,4.28
2023-05-21T10:24:31.797Z,4.05
2023-05-21T10:27:26.836Z,4.70
2023-05-21T10:30:15.093Z,5.20
2023-05-21T10:33:09.836Z,5.20
2023-05-21T10:35:59.266Z,4.60
2023-05-21T10:38:53.824Z,5.82
2023-05-21T10:42:01.819Z,5.75
2023-05-21T10:45:04.206Z,6.15
2023-05-21T10:48:08.839Z,6.72
2023-05-21T10:51:37.222Z,6.50
2023-05-21T10:54:43.860Z,5.75
2023-05-21T10:58:01.602Z,4.60
2023-05-21T11:00:55.961Z,4.63
2023-05-21T11:03:49.917Z,4.32
2023-05-21T11:06:43.927Z,5.28
2023-05-21T11:09:31.158Z,4.57
2023-05-21T11:12:25.873Z,5.13
2023-05-21T11:15:22.898Z,4.45
2023-05-21T11:18:16.910Z,4.43
2023-05-21T11:21:10.037Z,4.93
2023-05-21T11:24:08.902Z,4.10
2023-05-21T11:26:58.541Z,4.53
2023-05-21T11:29:52.911Z,6.35
2023-05-21T11:33:08.034Z,9.20
2023-05-21T11:35:55.161Z,5.47
2023-05-21T11:38:48.996Z,5.15
2023-05-21T11:42:08.917Z,5.13
2023-05-21T11:45:00.756Z,5.50
2023-05-21T11:47:55.987Z,4.75
2023-05-21T11:50:43.171Z,5.10
2023-05-21T11:53:36.941Z,5.30
2023-05-21T11:56:30.955Z,5.47
2023-05-21T11:59:18.990Z,5.60
2023-05-21T12:02:12.988Z,6.28
2023-05-21T12:05:00.610Z,6.30
2023-05-21T12:07:55.951Z,4.55
2023-05-21T12:10:44.420Z,4.63
2023-05-21T12:13:39.992Z,5.85
2023-05-21T12:16:34.140Z,5.40
2023-05-21T12:19:22.081Z,5.07
2023-05-21T12:22:16.006Z,4.20
2023-05-21T12:25:04.824Z,5.22
2023-05-21T12:28:03.992Z,4.38
2023-05-21T12:30:58.201Z,4.80
2023-05-21T12:33:54.009Z,4.75
2023-05-21T12:36:46.182Z,5.07
2023-05-21T12:42:34.692Z,6.30
2023-05-21T12:45:29.022Z,5.35
2023-05-21T12:48:16.591Z,5.65
2023-05-21T12:51:10.057Z,4.97
2023-05-21T12:53:57.255Z,5.57
2023-05-21T12:56:52.012Z,5.10
2023-05-21T12:59:50.531Z,6.20
2023-05-21T13:02:52.071Z,5.20
2023-05-21T13:05:41.478Z,4.70
2023-05-21T13:08:36.066Z,6.25
2023-05-21T13:11:23.187Z,6.20
2023-05-21T13:14:17.109Z,5.38
2023-05-21T13:17:04.422Z,6.30
2023-05-21T13:20:21.138Z,5.97
2023-05-21T13:23:15.109Z,5.75
2023-05-21T13:26:02.306Z,5.78
2023-05-21T13:28:56.087Z,5.53
2023-05-21T13:31:51.140Z,4.05
2023-05-21T13:34:45.150Z,6.13
2023-05-21T13:37:33.816Z,5.35
2023-05-21T13:40:28.085Z,5.60
2023-05-21T13:43:22.107Z,5.80
2023-05-21T13:46:12.022Z,5.75
2023-05-21T13:49:06.142Z,5.20
2023-05-21T13:51:53.407Z,4.63
2023-05-21T13:54:49.128Z,5.10
2023-05-21T13:57:36.391Z,5.57
2023-05-21T14:00:30.156Z,6.32
2023-05-21T14:03:24.183Z,5.78
2023-05-21T14:06:21.232Z,4.82
2023-05-21T14:09:15.191Z,5.13
2023-05-21T14:12:03.941Z,5.20
2023-05-21T14:14:59.185Z,4.60
2023-05-21T14:17:53.173Z,4.30
2023-05-21T14:20:47.182Z,4.28
2023-05-21T14:23:41.494Z,4.63
2023-05-21T14:26:36.180Z,5.00
2023-05-21T14:29:23.435Z,4.13
2023-05-21T14:32:17.385Z,4.28
2023-05-21T14:35:05.239Z,4.90
2023-05-21T14:38:00.214Z,4.80
2023-05-21T14:40:47.339Z,5.05
2023-05-21T14:43:41.202Z,4.95
2023-05-21T14:46:35.352Z,4.38
2023-05-21T14:49:36.224Z,4.55
2023-05-21T14:52:23.405Z,4.22
2023-05-21T14:55:19.230Z,4.70
2023-05-21T14:58:08.081Z,4.03
2023-05-21T15:01:02.265Z,4.30
2023-05-21T15:03:49.749Z,5.03
2023-05-21T15:06:43.235Z,5.00
2023-05-21T15:09:37.325Z,4.25
2023-05-21T15:12:24.455Z,5.03
2023-05-21T15:15:19.320Z,4.75
2023-05-21T15:18:13.346Z,3.85
2023-05-21T15:21:07.279Z,4.53
2023-05-21T15:23:54.425Z,4.05
2023-05-21T15:26:48.270Z,3.75
2023-05-21T15:29:35.412Z,4.15
2023-05-21T15:32:29.321Z,4.03
2023-05-21T15:35:23.428Z,3.50
2023-05-21T15:38:10.873Z,3.97
2023-05-21T15:41:04.377Z,4.80
2023-05-21T15:43:58.296Z,4.68
2023-05-21T15:46:45.527Z,4.32
2023-05-21T15:49:39.303Z,3.75
2023-05-21T15:52:36.312Z,4.35
2023-05-21T15:55:21.985Z,4.55
2023-05-21T15:58:14.325Z,4.60
2023-05-21T16:03:52.184Z,4.90
2023-05-21T16:06:44.316Z,4.60
2023-05-21T16:09:29.508Z,5.20
2023-05-21T16:12:21.404Z,5.97
2023-05-21T16:15:14.385Z,4.70
2023-05-21T16:18:00.019Z,5.60
2023-05-21T16:20:52.385Z,4.45
2023-05-21T16:23:46.418Z,4.55
2023-05-21T16:26:38.444Z,4.97
2023-05-21T16:29:31.403Z,5.57
2023-05-21T16:32:23.687Z,4.32
2023-05-21T16:35:16.388Z,3.55
2023-05-21T16:38:10.397Z,4.53
2023-05-21T16:40:56.062Z,4.18
2023-05-21T16:43:47.453Z,4.32
2023-05-21T16:46:32.693Z,4.53
2023-05-21T16:49:25.416Z,7.20
2023-05-21T16:52:11.155Z,5.20
2023-05-21T16:55:03.480Z,5.65
2023-05-21T16:57:49.159Z,6.00
2023-05-21T17:00:40.451Z,6.97
2023-05-21T17:03:25.979Z,5.88
2023-05-21T17:06:18.692Z,5.03
2023-05-21T17:09:11.447Z,5.15
2023-05-21T17:12:03.469Z,5.50
2023-05-21T17:14:55.474Z,6.40
2023-05-21T17:17:41.127Z,5.32
2023-05-21T17:20:33.475Z,7.30
2023-05-21T17:23:18.815Z,8.10
2023-05-21T17:26:13.477Z,6.47
2023-05-21T17:29:05.484Z,7.32
2023-05-21T17:31:57.844Z,6.68
2023-05-21T17:34:50.463Z,6.20
2023-05-21T17:37:42.490Z,6.28
2023-05-21T17:40:27.968Z,6.10
2023-05-21T17:43:20.516Z,6.60
2023-05-21T17:48:57.487Z,6.90
2023-05-21T17:51:43.784Z,6.47
2023-05-21T17:54:35.507Z,6.07
2023-05-21T17:57:27.499Z,6.93
2023-05-21T18:00:13.228Z,7.80
2023-05-21T18:03:05.804Z,6.95
2023-05-21T18:08:49.541Z,8.52
2023-05-21T18:11:35.060Z,7.93
2023-05-21T18:14:27.568Z,7.05
2023-05-21T18:17:13.036Z,6.93
2023-05-21T18:20:04.617Z,7.22
2023-05-21T18:22:57.617Z,10.40
2023-05-21T18:25:49.122Z,8.00
2023-05-21T18:28:41.578Z,7.68
2023-05-21T18:31:27.385Z,8.20
2023-05-21T18:34:19.744Z,9.60
2023-05-21T18:37:06.773Z,9.07
2023-05-21T18:39:58.618Z,8.90
2023-05-21T18:42:43.918Z,7.53
2023-05-21T18:45:36.620Z,10.27
2023-05-21T18:48:21.843Z,9.48
2023-05-21T18:51:13.619Z,8.57
2023-05-21T18:53:59.292Z,8.75
2023-05-21T18:57:06.625Z,10.43
2023-05-21T19:00:04.718Z,9.23
2023-05-21T19:02:50.333Z,9.40
2023-05-21T19:05:42.663Z,10.90
2023-05-21T19:08:28.033Z,10.13
2023-05-21T19:11:23.568Z,10.73
2023-05-21T19:14:09.354Z,11.80
2023-05-21T19:17:01.665Z,10.68
2023-05-21T19:19:46.962Z,11.82
2023-05-21T19:22:38.623Z,13.20
2023-05-21T19:25:24.305Z,13.73
2023-05-21T19:28:16.682Z,11.70
2023-05-21T19:31:02.126Z,12.00
2023-05-21T19:33:53.891Z,12.18
2023-05-21T19:36:53.331Z,13.50
2023-05-21T19:39:49.678Z,13.25
2023-05-21T19:42:42.707Z,12.15
2023-05-21T19:45:27.945Z,13.77
2023-05-21T19:48:19.685Z,12.55
2023-05-21T19:51:05.463Z,12.63
2023-05-21T19:53:57.751Z,12.02
2023-05-21T19:56:42.965Z,13.35
2023-05-21T19:59:35.058Z,12.35
2023-05-21T20:02:21.953Z,11.05
2023-05-21T20:05:14.743Z,14.18
2023-05-21T20:08:00.282Z,11.90
2023-05-21T20:10:52.715Z,12.55
2023-05-21T20:16:29.774Z,11.82
2023-05-21T20:19:15.383Z,10.13
2023-05-21T20:22:07.813Z,10.82
2023-05-21T20:27:51.776Z,12.57
2023-05-21T20:30:59.779Z,12.00
2023-05-21T20:33:51.730Z,11.30
2023-05-21T20:36:43.869Z,12.35
2023-05-21T20:39:29.833Z,11.77
2023-05-21T20:42:21.812Z,11.13
2023-05-21T20:45:07.914Z,11.60
2023-05-21T20:48:07.875Z,11.23
2023-05-21T20:50:53.792Z,11.43
2023-05-21T20:53:45.790Z,11.27
2023-05-21T20:56:42.026Z,9.77
2023-05-21T20:59:34.766Z,8.50
2023-05-21T21:05:18.789Z,11.90
2023-05-21T21:08:12.886Z,10.93
2023-05-21T21:11:04.791Z,12.15
2023-05-21T21:13:57.858Z,8.90
2023-05-21T21:16:43.068Z,9.27
2023-05-21T21:19:34.915Z,14.13
2023-05-21T21:22:20.977Z,11.60
2023-05-21T21:25:13.929Z,12.45
2023-05-21T21:28:05.883Z,12.57
2023-05-21T21:30:51.121Z,11.55
2023-05-21T21:33:42.904Z,13.88
2023-05-21T21:36:28.974Z,13.18
2023-05-21T21:39:20.856Z,14.10
2023-05-21T21:42:06.181Z,12.90
2023-05-21T21:44:57.885Z,12.15
2023-05-21T21:47:43.644Z,13.55
2023-05-21T21:50:36.034Z,13.95
2023-05-21T21:53:21.813Z,14.10
2023-05-21T21:56:13.880Z,11.85
2023-05-21T21:58:59.143Z,13.57
2023-05-21T22:01:50.924Z,15.60
2023-05-21T22:04:45.028Z,14.55
2023-05-21T22:07:38.984Z,12.80
2023-05-21T22:10:30.964Z,13.65
2023-05-21T22:13:16.635Z,11.53
2023-05-21T22:16:08.935Z,14.07
2023-05-21T22:18:54.589Z,13.60
2023-05-21T22:21:46.955Z,12.68
2023-05-21T22:24:33.354Z,11.10
2023-05-21T22:27:25.922Z,12.35
2023-05-21T22:30:12.087Z,15.98
2023-05-21T22:33:04.068Z,15.20
2023-05-21T22:35:49.532Z,13.43
2023-05-21T22:38:41.085Z,12.95
2023-05-21T22:41:26.823Z,13.60
2023-05-21T22:44:18.958Z,13.40
2023-05-21T22:47:11.006Z,16.42
2023-05-21T22:50:05.053Z,15.10
2023-05-21T22:52:56.996Z,15.45
2023-05-21T22:55:42.655Z,15.77
2023-05-21T22:58:35.063Z,15.43
2023-05-21T23:01:20.376Z,13.65
2023-05-21T23:04:11.982Z,12.75
2023-05-21T23:06:57.109Z,14.70
2023-05-21T23:09:48.997Z,13.90
2023-05-21T23:12:34.863Z,15.00
2023-05-21T23:15:28.086Z,15.50
2023-05-21T23:18:13.317Z,14.65
2023-05-21T23:21:06.031Z,14.75
2023-05-21T23:26:43.431Z,15.02
2023-05-21T23:29:38.016Z,14.10
2023-05-21T23:32:24.010Z,13.70
2023-05-21T23:35:17.187Z,11.98
2023-05-21T23:38:02.670Z,12.98
2023-05-21T23:40:54.028Z,11.90
2023-05-21T23:43:39.448Z,10.88
2023-05-21T23:46:31.113Z,10.93
2023-05-21T23:49:16.639Z,10.63
2023-05-21T23:52:09.074Z,10.95
2023-05-21T23:54:56.664Z,9.15
2023-05-21T23:57:49.116Z,10.77
